createdAt,value
2023-05-19T00:01:17.827Z,74.26
2023-05-19T00:03:57.753Z,74.55
2023-05-19T00:06:33.459Z,74.52
2023-05-19T00:09:01.458Z,74.67
2023-05-19T00:11:29.078Z,74.36
2023-05-19T00:13:58.012Z,74.70
2023-05-19T00:16:26.564Z,74.62
2023-05-19T00:18:54.230Z,75.11
2023-05-19T00:21:21.083Z,74.87
2023-05-19T00:23:47.787Z,75.14
2023-05-19T00:26:15.694Z,75.30
2023-05-19T00:28:42.283Z,75.18
2023-05-19T00:31:09.048Z,75.33
2023-05-19T00:33:35.798Z,75.00
2023-05-19T00:36:04.058Z,75.66
2023-05-19T00:38:31.972Z,75.54
2023-05-19T00:40:59.717Z,75.65
2023-05-19T00:43:26.953Z,75.33
2023-05-19T00:45:53.853Z,75.50
2023-05-19T00:48:21.129Z,75.55
2023-05-19T00:50:49.312Z,75.57
2023-05-19T00:53:18.138Z,75.34
2023-05-19T00:55:46.306Z,75.61
2023-05-19T00:58:14.431Z,75.73
2023-05-19T01:00:41.220Z,75.63
2023-05-19T01:03:11.463Z,75.90
2023-05-19T01:05:42.502Z,75.43
2023-05-19T01:08:09.330Z,75.83
2023-05-19T01:10:37.846Z,76.00
2023-05-19T01:13:05.937Z,75.76
2023-05-19T01:15:45.389Z,75.68
2023-05-19T01:18:16.715Z,76.14
2023-05-19T01:20:52.644Z,75.97
2023-05-19T01:23:41.056Z,75.95
2023-05-19T01:26:36.053Z,75.85
2023-05-19T01:29:17.954Z,76.14
2023-05-19T01:31:48.102Z,75.79
2023-05-19T01:34:16.427Z,76.07
2023-05-19T01:36:45.108Z,76.20
2023-05-19T01:39:12.490Z,76.17
2023-05-19T01:41:41.762Z,76.18
2023-05-19T01:44:09.857Z,75.71
2023-05-19T01:46:37.627Z,76.20
2023-05-19T01:49:05.590Z,76.17
2023-05-19T01:51:32.360Z,75.82
2023-05-19T01:53:59.121Z,75.94
2023-05-19T01:56:44.056Z,75.89
2023-05-19T01:59:48.694Z,76.15
2023-05-19T02:02:29.524Z,75.83
2023-05-19T02:05:02.897Z,75.85
2023-05-19T02:07:44.804Z,76.22
2023-05-19T02:10:28.145Z,76.02
2023-05-19T02:12:58.741Z,75.78
2023-05-19T02:15:28.781Z,75.70
2023-05-19T02:17:58.098Z,75.89
2023-05-19T02:20:24.828Z,75.87
2023-05-19T02:22:51.730Z,75.80
2023-05-19T02:25:18.554Z,76.28
2023-05-19T02:27:45.740Z,75.81
2023-05-19T02:30:12.627Z,76.14
2023-05-19T02:32:39.629Z,76.00
2023-05-19T02:35:06.657Z,75.77
2023-05-19T02:37:33.285Z,76.08
2023-05-19T02:39:59.968Z,76.25
2023-05-19T02:42:26.738Z,75.84
2023-05-19T02:44:54.836Z,76.01
2023-05-19T02:47:21.632Z,76.28
2023-05-19T02:49:48.313Z,76.27
2023-05-19T02:52:15.079Z,76.38
2023-05-19T02:54:41.784Z,75.87
2023-05-19T02:57:08.425Z,75.81
2023-05-19T02:59:35.019Z,75.97
2023-05-19T03:02:02.514Z,75.81
2023-05-19T03:04:29.875Z,75.98
2023-05-19T03:06:57.673Z,76.08
2023-05-19T03:09:24.325Z,76.35
2023-05-19T03:11:51.079Z,76.09
2023-05-19T03:14:18.754Z,76.19
2023-05-19T03:16:45.880Z,76.26
2023-05-19T03:19:12.766Z,75.97
2023-05-19T03:21:39.457Z,76.08
2023-05-19T03:24:06.739Z,76.31
2023-05-19T03:26:33.450Z,76.40
2023-05-19T03:29:00.123Z,76.42
2023-05-19T03:31:27.023Z,75.85
2023-05-19T03:33:53.743Z,76.28
2023-05-19T03:36:22.030Z,76.70
2023-05-19T03:38:49.001Z,76.16
2023-05-19T03:41:16.171Z,76.41
2023-05-19T03:43:42.792Z,76.77
2023-05-19T03:46:09.656Z,77.01
2023-05-19T03:48:36.384Z,76.53
2023-05-19T03:51:04.454Z,76.97
2023-05-19T03:53:31.250Z,76.74
2023-05-19T03:55:57.986Z,77.08
2023-05-19T03:58:24.671Z,77.09
2023-05-19T04:00:51.424Z,77.41
2023-05-19T04:03:18.490Z,77.20
2023-05-19T04:05:45.210Z,77.27
2023-05-19T04:08:11.885Z,77.82
2023-05-19T04:10:38.502Z,77.33
2023-05-19T04:13:05.117Z,77.73
2023-05-19T04:15:31.844Z,77.55
2023-05-19T04:17:58.556Z,77.38
2023-05-19T04:20:25.254Z,77.42
2023-05-19T04:22:51.947Z,77.46
2023-05-19T04:25:20.181Z,77.95
2023-05-19T04:27:48.285Z,78.35
2023-05-19T04:30:22.152Z,79.09
2023-05-19T04:32:51.903Z,78.51
2023-05-19T04:35:19.433Z,76.99
2023-05-19T04:37:46.088Z,75.65
2023-05-19T04:40:13.301Z,74.20
2023-05-19T04:42:45.842Z,73.59
2023-05-19T04:45:13.929Z,72.82
2023-05-19T04:47:42.436Z,71.13
2023-05-19T04:50:11.165Z,69.96
2023-05-19T04:52:37.926Z,68.30
2023-05-19T04:55:04.983Z,66.99
2023-05-19T04:57:31.778Z,64.27
2023-05-19T05:00:00.291Z,63.08
2023-05-19T05:02:29.628Z,61.23
2023-05-19T05:04:56.816Z,60.38
2023-05-19T05:07:23.958Z,56.81
2023-05-19T05:09:50.682Z,56.50
2023-05-19T05:12:21.739Z,54.36
2023-05-19T05:14:48.720Z,52.49
2023-05-19T05:17:16.185Z,51.03
2023-05-19T05:19:43.041Z,49.26
2023-05-19T05:22:09.952Z,48.23
2023-05-19T05:24:36.851Z,47.49
2023-05-19T05:27:03.968Z,46.05
2023-05-19T05:29:31.008Z,44.05
2023-05-19T05:31:57.853Z,44.03
2023-05-19T05:34:24.889Z,43.49
2023-05-19T05:36:51.571Z,42.47
2023-05-19T05:39:18.407Z,41.49
2023-05-19T05:41:45.037Z,41.34
2023-05-19T05:44:11.688Z,40.23
2023-05-19T05:46:38.590Z,40.38
2023-05-19T05:49:05.639Z,39.51
2023-05-19T05:51:33.011Z,38.75
2023-05-19T05:54:01.119Z,37.95
2023-05-19T05:56:28.207Z,38.02
2023-05-19T05:58:54.864Z,36.92
2023-05-19T06:01:21.975Z,36.38
2023-05-19T06:03:48.676Z,36.29
2023-05-19T06:06:15.436Z,35.68
2023-05-19T06:08:42.347Z,34.43
2023-05-19T06:11:09.429Z,34.05
2023-05-19T06:13:36.601Z,34.01
2023-05-19T06:16:03.817Z,33.30
2023-05-19T06:18:30.583Z,32.80
2023-05-19T06:20:57.237Z,33.17
2023-05-19T06:23:25.213Z,32.15
2023-05-19T06:25:51.877Z,31.67
2023-05-19T06:28:18.549Z,30.30
2023-05-19T06:30:45.253Z,29.61
2023-05-19T06:33:12.032Z,29.31
2023-05-19T06:35:38.730Z,29.64
2023-05-19T06:38:05.386Z,28.81
2023-05-19T06:40:32.220Z,29.11
2023-05-19T06:42:59.085Z,29.17
2023-05-19T06:45:25.891Z,27.93
2023-05-19T06:47:52.571Z,27.91
2023-05-19T06:50:19.362Z,27.67
2023-05-19T06:52:47.165Z,27.88
2023-05-19T06:55:13.832Z,27.52
2023-05-19T06:57:40.674Z,26.75
2023-05-19T07:00:13.878Z,25.30
2023-05-19T07:02:41.991Z,26.04
2023-05-19T07:05:09.292Z,26.72
2023-05-19T07:07:36.033Z,25.43
2023-05-19T07:10:03.025Z,24.43
2023-05-19T07:12:29.815Z,22.71
2023-05-19T07:14:56.595Z,23.00
2023-05-19T07:17:23.300Z,23.75
2023-05-19T07:19:50.346Z,23.65
2023-05-19T07:22:17.269Z,24.28
2023-05-19T07:24:44.025Z,24.14
2023-05-19T07:27:10.832Z,23.35
2023-05-19T07:29:37.490Z,23.60
2023-05-19T07:32:04.512Z,23.92
2023-05-19T07:34:31.619Z,23.81
2023-05-19T07:36:58.448Z,22.85
2023-05-19T07:39:27.867Z,23.65
2023-05-19T07:41:55.753Z,23.86
2023-05-19T07:44:22.477Z,24.78
2023-05-19T07:46:49.170Z,25.52
2023-05-19T07:49:15.979Z,26.34
2023-05-19T07:51:42.757Z,27.22
2023-05-19T07:54:09.415Z,28.01
2023-05-19T07:56:36.150Z,28.83
2023-05-19T07:59:04.113Z,29.10
2023-05-19T08:01:32.181Z,29.57
2023-05-19T08:03:59.053Z,30.41
2023-05-19T08:06:26.007Z,31.84
2023-05-19T08:08:54.292Z,31.78
2023-05-19T08:11:21.609Z,31.94
2023-05-19T08:13:51.792Z,32.94
2023-05-19T08:16:18.808Z,33.56
2023-05-19T08:18:45.623Z,34.43
2023-05-19T08:21:12.375Z,33.87
2023-05-19T08:23:39.293Z,34.23
2023-05-19T08:26:06.184Z,35.40
2023-05-19T08:28:33.041Z,34.92
2023-05-19T08:30:59.894Z,34.96
2023-05-19T08:33:26.639Z,34.68
2023-05-19T08:35:53.356Z,35.59
2023-05-19T08:38:19.971Z,35.50
2023-05-19T08:40:48.489Z,35.72
2023-05-19T08:43:15.469Z,35.78
2023-05-19T08:45:48.338Z,35.79
2023-05-19T08:48:17.313Z,35.69
2023-05-19T08:50:51.404Z,36.25
2023-05-19T08:53:33.690Z,35.97
2023-05-19T08:56:04.139Z,35.83
2023-05-19T08:58:32.203Z,36.15
2023-05-19T09:01:00.495Z,36.08
2023-05-19T09:03:28.988Z,36.56
2023-05-19T09:05:56.263Z,35.96
2023-05-19T09:08:22.952Z,36.68
2023-05-19T09:10:49.566Z,36.59
2023-05-19T09:13:16.520Z,36.61
2023-05-19T09:15:45.604Z,36.00
2023-05-19T09:18:15.057Z,35.57
2023-05-19T09:20:44.540Z,33.64
2023-05-19T09:23:16.297Z,34.35
2023-05-19T09:25:53.499Z,34.47
2023-05-19T09:28:33.264Z,34.45
2023-05-19T09:31:11.003Z,34.76
2023-05-19T09:33:39.388Z,34.92
2023-05-19T09:36:08.521Z,34.43
2023-05-19T09:38:36.400Z,34.28
2023-05-19T09:41:04.124Z,34.50
2023-05-19T09:43:33.540Z,34.36
2023-05-19T09:46:06.116Z,34.22
2023-05-19T09:48:34.558Z,34.42
2023-05-19T09:51:03.609Z,34.48
2023-05-19T09:53:31.406Z,34.29
2023-05-19T09:55:58.406Z,33.90
2023-05-19T09:58:26.517Z,34.06
2023-05-19T10:00:56.950Z,34.81
2023-05-19T10:03:25.461Z,34.66
2023-05-19T10:05:53.801Z,35.07
2023-05-19T10:08:21.556Z,34.97
2023-05-19T10:10:48.523Z,34.70
2023-05-19T10:13:16.559Z,34.61
2023-05-19T10:15:57.241Z,33.45
2023-05-19T10:18:25.921Z,33.25
2023-05-19T10:20:53.904Z,33.52
2023-05-19T10:23:20.588Z,33.73
2023-05-19T10:25:49.257Z,33.58
2023-05-19T10:28:18.905Z,33.92
2023-05-19T10:30:49.025Z,33.66
2023-05-19T10:33:18.202Z,33.01
2023-05-19T10:36:29.618Z,32.98
2023-05-19T10:39:05.259Z,32.52
2023-05-19T10:41:47.046Z,32.52
2023-05-19T10:44:35.197Z,33.28
2023-05-19T10:47:01.880Z,33.67
2023-05-19T10:49:28.943Z,33.17
2023-05-19T10:51:58.657Z,33.78
2023-05-19T10:54:41.497Z,33.51
2023-05-19T10:57:08.383Z,33.43
2023-05-19T10:59:37.795Z,33.28
2023-05-19T11:02:05.756Z,33.84
2023-05-19T11:04:51.808Z,34.42
2023-05-19T11:07:20.994Z,34.17
2023-05-19T11:09:52.242Z,34.38
2023-05-19T11:12:24.630Z,33.46
2023-05-19T11:14:55.519Z,33.43
2023-05-19T11:17:24.829Z,32.62
2023-05-19T11:19:54.598Z,33.25
2023-05-19T11:22:26.269Z,33.29
2023-05-19T11:24:56.001Z,33.42
2023-05-19T11:27:31.454Z,32.93
2023-05-19T11:30:20.087Z,32.91
2023-05-19T11:32:50.660Z,32.35
2023-05-19T11:35:19.159Z,32.67
2023-05-19T11:37:47.690Z,32.91
2023-05-19T11:40:15.751Z,32.60
2023-05-19T11:42:42.568Z,33.19
2023-05-19T11:45:09.804Z,33.15
2023-05-19T11:47:51.741Z,33.45
2023-05-19T11:50:23.409Z,34.27
2023-05-19T11:52:51.844Z,33.32
2023-05-19T11:55:22.102Z,33.47
2023-05-19T11:58:08.992Z,34.73
2023-05-19T12:00:39.654Z,33.94
2023-05-19T12:03:08.116Z,33.77
2023-05-19T12:05:42.705Z,33.93
2023-05-19T12:08:11.128Z,33.55
2023-05-19T12:10:39.559Z,33.63
2023-05-19T12:13:09.132Z,34.42
2023-05-19T12:15:36.690Z,34.61
2023-05-19T12:18:03.916Z,34.97
2023-05-19T12:20:36.152Z,34.20
2023-05-19T12:23:03.968Z,34.23
2023-05-19T12:25:31.844Z,33.85
2023-05-19T12:28:00.263Z,34.60
2023-05-19T12:30:31.814Z,35.15
2023-05-19T12:32:59.053Z,35.33
2023-05-19T12:35:30.678Z,35.31
2023-05-19T12:38:02.367Z,34.35
2023-05-19T12:40:29.906Z,34.64
2023-05-19T12:42:59.225Z,34.75
2023-05-19T12:45:28.429Z,35.19
2023-05-19T12:47:56.048Z,35.74
2023-05-19T12:50:30.382Z,35.50
2023-05-19T12:52:59.546Z,35.25
2023-05-19T12:55:26.625Z,35.26
2023-05-19T12:57:59.575Z,34.83
2023-05-19T13:00:31.261Z,35.40
2023-05-19T13:03:05.032Z,36.02
2023-05-19T13:05:37.961Z,35.79
2023-05-19T13:08:09.373Z,35.82
2023-05-19T13:10:38.500Z,35.67
2023-05-19T13:13:06.954Z,36.14
2023-05-19T13:15:38.832Z,35.49
2023-05-19T13:18:11.259Z,36.11
2023-05-19T13:20:39.230Z,36.68
2023-05-19T13:23:06.086Z,36.20
2023-05-19T13:25:34.452Z,35.86
2023-05-19T13:28:05.799Z,35.98
2023-05-19T13:30:34.004Z,36.20
2023-05-19T13:33:01.047Z,36.80
2023-05-19T13:35:27.918Z,36.17
2023-05-19T13:37:54.816Z,35.77
2023-05-19T13:40:23.085Z,35.43
2023-05-19T13:42:49.841Z,35.93
2023-05-19T13:45:16.519Z,35.52
2023-05-19T13:47:43.260Z,35.30
2023-05-19T13:50:10.104Z,35.35
2023-05-19T13:52:36.762Z,35.84
2023-05-19T13:55:03.734Z,35.44
2023-05-19T13:57:30.461Z,35.67
2023-05-19T14:00:03.316Z,35.88
2023-05-19T14:02:31.511Z,36.10
2023-05-19T14:04:58.281Z,36.21
2023-05-19T14:07:25.752Z,36.49
2023-05-19T14:09:53.097Z,36.09
2023-05-19T14:12:23.259Z,36.19
2023-05-19T14:14:52.113Z,36.20
2023-05-19T14:17:18.977Z,36.57
2023-05-19T14:19:45.712Z,36.57
2023-05-19T14:22:13.380Z,36.54
2023-05-19T14:24:41.595Z,36.63
2023-05-19T14:27:08.231Z,36.83
2023-05-19T14:29:35.433Z,36.96
2023-05-19T14:32:03.158Z,37.86
2023-05-19T14:34:30.429Z,37.74
2023-05-19T14:36:57.292Z,37.28
2023-05-19T14:39:24.052Z,37.30
2023-05-19T14:41:52.003Z,37.14
2023-05-19T14:44:18.873Z,37.71
2023-05-19T14:46:45.634Z,38.10
2023-05-19T14:49:12.341Z,37.83
2023-05-19T14:51:39.011Z,37.01
2023-05-19T14:54:05.866Z,37.32
2023-05-19T14:56:32.557Z,37.86
2023-05-19T14:58:59.233Z,38.12
2023-05-19T15:01:25.969Z,38.39
2023-05-19T15:03:52.831Z,37.20
2023-05-19T15:06:19.670Z,37.56
2023-05-19T15:08:46.582Z,36.78
2023-05-19T15:11:13.586Z,36.80
2023-05-19T15:13:40.496Z,36.37
2023-05-19T15:16:17.765Z,36.64
2023-05-19T15:18:45.242Z,36.78
2023-05-19T15:21:12.318Z,36.69
2023-05-19T15:23:39.377Z,36.71
2023-05-19T15:26:06.055Z,37.00
2023-05-19T15:28:33.628Z,37.68
2023-05-19T15:31:00.429Z,37.74
2023-05-19T15:33:27.452Z,38.16
2023-05-19T15:35:54.463Z,38.10
2023-05-19T15:38:21.288Z,38.35
2023-05-19T15:40:48.096Z,38.28
2023-05-19T15:43:15.106Z,37.75
2023-05-19T15:45:52.373Z,37.42
2023-05-19T15:48:19.370Z,37.42
2023-05-19T15:50:46.084Z,37.35
2023-05-19T15:53:12.870Z,37.49
2023-05-19T15:55:39.643Z,37.19
2023-05-19T15:58:06.312Z,36.31
2023-05-19T16:00:33.169Z,36.98
2023-05-19T16:03:00.167Z,36.76
2023-05-19T16:05:26.986Z,36.49
2023-05-19T16:07:53.654Z,36.86
2023-05-19T16:10:20.582Z,37.17
2023-05-19T16:12:47.768Z,36.95
2023-05-19T16:15:14.506Z,36.75
2023-05-19T16:17:41.432Z,36.71
2023-05-19T16:20:08.748Z,36.49
2023-05-19T16:22:35.526Z,37.06
2023-05-19T16:25:02.327Z,37.34
2023-05-19T16:27:29.200Z,37.86
2023-05-19T16:29:55.959Z,37.49
2023-05-19T16:32:22.885Z,38.09
2023-05-19T16:34:49.612Z,38.43
2023-05-19T16:37:16.283Z,37.87
2023-05-19T16:39:43.985Z,37.50
2023-05-19T16:42:10.748Z,37.00
2023-05-19T16:44:37.675Z,37.23
2023-05-19T16:47:04.708Z,37.96
2023-05-19T16:49:31.598Z,38.51
2023-05-19T16:51:58.308Z,39.17
2023-05-19T16:54:25.903Z,39.41
2023-05-19T16:56:52.585Z,39.70
2023-05-19T16:59:19.238Z,39.86
2023-05-19T17:01:46.190Z,40.03
2023-05-19T17:04:13.283Z,40.02
2023-05-19T17:06:40.188Z,40.40
2023-05-19T17:09:06.911Z,40.46
2023-05-19T17:11:33.576Z,40.67
2023-05-19T17:14:00.388Z,40.51
2023-05-19T17:16:27.150Z,40.51
2023-05-19T17:18:53.952Z,41.05
2023-05-19T17:21:20.870Z,41.04
2023-05-19T17:23:47.640Z,41.30
2023-05-19T17:26:15.860Z,41.92
2023-05-19T17:28:42.651Z,41.71
2023-05-19T17:31:13.114Z,43.43
2023-05-19T17:33:40.214Z,43.61
2023-05-19T17:36:08.087Z,43.94
2023-05-19T17:38:35.112Z,44.63
2023-05-19T17:41:02.554Z,44.18
2023-05-19T17:43:30.213Z,44.59
2023-05-19T17:45:58.677Z,44.86
2023-05-19T17:48:26.240Z,44.91
2023-05-19T17:50:53.106Z,44.56
2023-05-19T17:53:20.034Z,44.68
2023-05-19T17:55:51.237Z,45.17
2023-05-19T17:58:18.758Z,45.68
2023-05-19T18:00:46.092Z,46.07
2023-05-19T18:03:13.163Z,45.46
2023-05-19T18:05:40.505Z,46.37
2023-05-19T18:08:09.430Z,46.83
2023-05-19T18:10:38.121Z,46.67
2023-05-19T18:13:05.894Z,46.63
2023-05-19T18:15:32.967Z,47.32
2023-05-19T18:18:00.204Z,47.21
2023-05-19T18:20:27.191Z,47.17
2023-05-19T18:22:54.285Z,47.58
2023-05-19T18:25:20.983Z,47.80
2023-05-19T18:27:47.757Z,47.45
2023-05-19T18:30:14.572Z,47.55
2023-05-19T18:32:41.584Z,47.44
2023-05-19T18:35:09.092Z,47.89
2023-05-19T18:37:35.850Z,47.92
2023-05-19T18:40:02.560Z,47.40
2023-05-19T18:42:29.430Z,47.61
2023-05-19T18:44:56.673Z,47.64
2023-05-19T18:47:23.292Z,47.84
2023-05-19T18:49:50.355Z,47.88
2023-05-19T18:52:18.998Z,48.07
2023-05-19T18:54:47.137Z,48.44
2023-05-19T18:57:16.656Z,48.73
2023-05-19T18:59:43.370Z,49.25
2023-05-19T19:02:10.191Z,49.80
2023-05-19T19:04:36.973Z,50.18
2023-05-19T19:07:03.709Z,49.87
2023-05-19T19:09:30.581Z,49.91
2023-05-19T19:11:57.332Z,50.02
2023-05-19T19:14:24.150Z,50.40
2023-05-19T19:16:50.898Z,49.95
2023-05-19T19:19:18.229Z,50.33
2023-05-19T19:21:44.968Z,50.31
2023-05-19T19:24:11.721Z,50.68
2023-05-19T19:26:38.504Z,50.89
2023-05-19T19:29:05.161Z,50.56
2023-05-19T19:31:33.289Z,50.42
2023-05-19T19:34:03.761Z,50.91
2023-05-19T19:36:31.878Z,51.53
2023-05-19T19:38:58.817Z,51.92
2023-05-19T19:41:26.675Z,51.99
2023-05-19T19:43:53.778Z,52.29
2023-05-19T19:46:20.517Z,52.91
2023-05-19T19:48:47.262Z,52.67
2023-05-19T19:51:13.921Z,53.50
2023-05-19T19:53:40.616Z,53.52
2023-05-19T19:56:07.506Z,53.37
2023-05-19T19:58:34.295Z,53.88
2023-05-19T20:01:02.807Z,53.48
2023-05-19T20:03:29.770Z,53.66
2023-05-19T20:05:57.091Z,54.51
2023-05-19T20:08:24.951Z,54.17
2023-05-19T20:10:52.184Z,55.01
2023-05-19T20:13:19.355Z,55.45
2023-05-19T20:15:47.053Z,55.65
2023-05-19T20:18:13.872Z,55.70
2023-05-19T20:20:41.034Z,56.09
2023-05-19T20:23:08.182Z,56.40
2023-05-19T20:25:50.109Z,56.36
2023-05-19T20:28:25.830Z,57.23
2023-05-19T20:30:52.857Z,57.01
2023-05-19T20:33:19.544Z,57.43
2023-05-19T20:35:46.259Z,57.34
2023-05-19T20:38:13.044Z,57.63
2023-05-19T20:40:39.830Z,58.67
2023-05-19T20:43:06.441Z,57.83
2023-05-19T20:45:33.542Z,58.04
2023-05-19T20:48:02.740Z,58.47
2023-05-19T20:50:29.591Z,58.70
2023-05-19T20:52:56.434Z,59.29
2023-05-19T20:55:23.059Z,59.70
2023-05-19T20:57:49.740Z,59.37
2023-05-19T21:00:16.789Z,60.26
2023-05-19T21:02:44.293Z,60.05
2023-05-19T21:05:11.252Z,60.29
2023-05-19T21:07:38.101Z,60.64
2023-05-19T21:10:05.244Z,60.62
2023-05-19T21:12:34.274Z,60.99
2023-05-19T21:15:01.822Z,60.70
2023-05-19T21:17:28.586Z,60.96
2023-05-19T21:19:59.585Z,61.42
2023-05-19T21:22:26.946Z,61.37
2023-05-19T21:24:54.321Z,62.04
2023-05-19T21:27:21.451Z,61.85
2023-05-19T21:29:52.995Z,62.09
2023-05-19T21:32:20.445Z,61.87
2023-05-19T21:34:47.652Z,62.06
2023-05-19T21:37:16.352Z,62.61
2023-05-19T21:39:43.516Z,62.79
2023-05-19T21:42:10.291Z,62.48
2023-05-19T21:44:37.026Z,62.47
2023-05-19T21:47:03.791Z,62.73
2023-05-19T21:49:31.250Z,63.10
2023-05-19T21:51:58.265Z,63.48
2023-05-19T21:54:24.957Z,63.71
2023-05-19T21:56:51.746Z,63.32
2023-05-19T21:59:18.697Z,63.73
2023-05-19T22:01:45.806Z,63.39
2023-05-19T22:04:14.302Z,63.72
2023-05-19T22:06:41.901Z,63.37
2023-05-19T22:09:09.158Z,63.54
2023-05-19T22:11:36.309Z,63.60
2023-05-19T22:14:03.010Z,63.86
2023-05-19T22:16:30.864Z,64.07
2023-05-19T22:18:57.746Z,64.15
2023-05-19T22:21:24.576Z,64.05
2023-05-19T22:23:52.809Z,64.39
2023-05-19T22:26:19.608Z,63.91
2023-05-19T22:28:46.270Z,64.10
2023-05-19T22:31:12.956Z,64.33
2023-05-19T22:33:39.620Z,64.49
2023-05-19T22:36:06.736Z,64.77
2023-05-19T22:38:33.359Z,65.20
2023-05-19T22:41:00.044Z,64.96
2023-05-19T22:43:26.682Z,64.82
2023-05-19T22:45:53.380Z,65.34
2023-05-19T22:48:20.552Z,65.35
2023-05-19T22:50:47.326Z,65.39
2023-05-19T22:53:13.986Z,65.07
2023-05-19T22:55:40.730Z,65.78
2023-05-19T22:58:07.555Z,65.50
2023-05-19T23:00:34.121Z,65.50
2023-05-19T23:03:01.045Z,65.36
2023-05-19T23:05:27.773Z,65.88
2023-05-19T23:07:54.510Z,65.68
2023-05-19T23:10:21.227Z,65.95
2023-05-19T23:12:48.873Z,65.89
2023-05-19T23:15:15.727Z,65.76
2023-05-19T23:17:42.514Z,66.30
2023-05-19T23:20:09.828Z,66.30
2023-05-19T23:22:36.470Z,65.87
2023-05-19T23:25:07.563Z,66.36
2023-05-19T23:27:36.176Z,66.12
2023-05-19T23:30:03.606Z,66.17
2023-05-19T23:32:30.359Z,66.48
2023-05-19T23:34:57.086Z,66.63
2023-05-19T23:37:23.843Z,66.29
2023-05-19T23:39:50.624Z,66.44
2023-05-19T23:42:17.471Z,66.49
2023-05-19T23:44:44.297Z,66.63
2023-05-19T23:47:11.003Z,66.60
2023-05-19T23:49:37.725Z,67.19
2023-05-19T23:52:04.442Z,66.85
2023-05-19T23:54:31.103Z,67.17
2023-05-19T23:56:58.554Z,67.23
2023-05-19T23:59:25.330Z,67.44
